CheckWX is a tool to help pilots better visualize weather data.  It is not intended as a substitute for an official pre-flight weather briefing.

01:23:35 UTC

4A6 METAR
Scottsboro Municipal-Word Field Airport
Scottsboro, Alabama, USA
Current

29 mins ago

K4A6 240055Z AUTO 17010KT 10SM -DZ FEW015 SCT023 OVC032 15/15 A2990 RMK AO2 P0001
Observed
Feb-24 @ 00:55 UTC
Wind
  • 170° at 10 KTS
Visibility
10 SM
Flight Rules
VFR
Conditions
Light Drizzle
Cloud Levels
  • Few at 1,500' AGL
  • Scattered at 2,300' AGL
  • Overcast at 3,200' AGL
Temperature
15°C / 59°F
Dewpoint
15°C / 59°F
Humidity
100%
Altimeter
29.9" Hg
Pressure
1012.52 hPa
Current Rain
0.01"
Previous

49 mins ago

K4A6 240035Z AUTO 21008G18KT 10SM -DZ SCT016 BKN021 OVC110 15/15 A2991 RMK AO2 LTG DSNT SW AND NW
Observed
Feb-24 @ 00:35 UTC
Wind
  • 210° at 8 KTS
  • Gusting to 18 KTS
Visibility
10 SM
Flight Rules
MVFR
Conditions
Light Drizzle
Cloud Levels
  • Scattered at 1,600' AGL
  • Broken at 2,100' AGL
  • Overcast at 11,000' AGL
Temperature
15°C / 59°F
Dewpoint
15°C / 59°F
Humidity
100%
Altimeter
29.91" Hg
Pressure
1012.92 hPa
Previous

1 hour ago

K4A6 240015Z AUTO VRB03KT 10SM -DZ SCT014 BKN060 BKN110 14/14 A2989 RMK AO2 LTG DSNT N AND W
Observed
Feb-24 @ 00:15 UTC
Wind
  • Variable at 3 KTS
Visibility
10 SM
Flight Rules
VFR
Conditions
Light Drizzle
Cloud Levels
  • Scattered at 1,400' AGL
  • Broken at 6,000' AGL
  • Broken at 11,000' AGL
Temperature
14°C / 57°F
Dewpoint
14°C / 57°F
Humidity
100%
Altimeter
29.89" Hg
Pressure
1012.22 hPa